Time;durP1;ratioP1;P1;durP2;ratioP2;P2;SDS_P1;SDS_P2;PMS_P1;PMS_P2;Temp;Humidity;BMP_temperature;BMP_pressure;BME280_temperature;BME280_humidity;BME280_pressure;Samples;Min_cycle;Max_cycle;Signal;HPM_P1;HPM_P2
2021/11/11 00:00:50;;;;;;;34.63;19.10;;;3.30;80.60;;;;;;5053359;28;20523;-70
2021/11/11 00:03:18;;;;;;;33.03;19.00;;;3.30;80.80;;;;;;5050954;28;20049;-70
2021/11/11 00:05:44;;;;;;;33.15;19.20;;;3.30;80.90;;;;;;5056446;28;20032;-70
2021/11/11 00:08:09;;;;;;;36.33;20.27;;;3.30;81.00;;;;;;5054673;28;20036;-69
2021/11/11 00:10:35;;;;;;;37.22;19.73;;;3.30;80.90;;;;;;5054142;28;20041;-67
2021/11/11 00:13:02;;;;;;;31.20;18.80;;;3.30;80.90;;;;;;5054307;28;20037;-70
2021/11/11 00:15:29;;;;;;;31.92;19.08;;;3.40;80.90;;;;;;5054415;28;20045;-70
2021/11/11 00:17:55;;;;;;;39.33;19.85;;;3.40;80.80;;;;;;5052715;28;20040;-69
2021/11/11 00:20:26;;;;;;;38.10;20.17;;;3.40;80.70;;;;;;5053975;28;20515;-70
2021/11/11 00:22:53;;;;;;;53.85;18.75;;;3.40;80.50;;;;;;5052376;28;20072;-67
2021/11/11 00:25:21;;;;;;;32.72;15.63;;;3.40;80.20;;;;;;5053711;28;20591;-69
2021/11/11 00:27:47;;;;;;;32.92;14.90;;;3.40;80.00;;;;;;5052386;28;20055;-68
2021/11/11 00:30:15;;;;;;;28.55;16.63;;;3.40;80.10;;;;;;5055082;28;20394;-69
2021/11/11 00:32:41;;;;;;;38.22;16.90;;;3.30;80.10;;;;;;5053565;28;20025;-69
2021/11/11 00:35:14;;;;;;;37.70;17.00;;;3.30;80.20;;;;;;5050736;28;20045;-69
2021/11/11 00:37:40;;;;;;;53.88;17.75;;;3.30;80.40;;;;;;5050841;28;20048;-70
2021/11/11 00:40:07;;;;;;;26.63;16.40;;;3.30;80.40;;;;;;5050643;28;20503;-68
2021/11/11 00:42:33;;;;;;;37.80;16.92;;;3.30;80.40;;;;;;5052055;28;20067;-69
2021/11/11 00:44:59;;;;;;;28.27;16.73;;;3.20;80.50;;;;;;5055498;28;20021;-69
2021/11/11 00:47:24;;;;;;;36.30;18.52;;;3.20;80.70;;;;;;5052528;28;20032;-70
2021/11/11 00:49:50;;;;;;;42.65;20.95;;;3.20;80.70;;;;;;5052430;28;20078;-69
2021/11/11 00:52:16;;;;;;;89.97;21.50;;;3.20;80.70;;;;;;5053817;28;20043;-70
2021/11/11 00:54:43;;;;;;;87.50;21.80;;;3.20;80.70;;;;;;5051417;28;20566;-69
2021/11/11 00:57:09;;;;;;;39.33;19.42;;;3.20;80.70;;;;;;5056172;28;20048;-70
2021/11/11 00:59:35;;;;;;;36.58;19.52;;;3.20;81.00;;;;;;5052654;28;20029;-69
2021/11/11 01:02:07;;;;;;;37.20;18.90;;;3.20;81.20;;;;;;5053021;28;20035;-70
2021/11/11 01:04:32;;;;;;;90.93;22.40;;;3.20;81.30;;;;;;5055401;28;20025;-69
2021/11/11 01:06:58;;;;;;;73.97;21.20;;;3.20;81.50;;;;;;5054210;28;20039;-70
2021/11/11 01:09:24;;;;;;;75.78;21.23;;;3.20;81.60;;;;;;5058033;28;20404;-68
2021/11/11 01:11:49;;;;;;;90.40;21.20;;;3.30;81.70;;;;;;5055301;28;20033;-70
2021/11/11 01:14:16;;;;;;;80.32;22.98;;;3.30;81.80;;;;;;5059092;28;20458;-70
2021/11/11 01:16:42;;;;;;;73.65;22.48;;;3.30;81.70;;;;;;5061774;28;20066;-69
2021/11/11 01:19:07;;;;;;;80.05;22.33;;;3.30;81.60;;;;;;5058978;28;20040;-70
2021/11/11 01:21:33;;;;;;;82.78;20.30;;;3.40;81.60;;;;;;5055350;28;20382;-69
2021/11/11 01:23:59;;;;;;;94.13;22.75;;;3.40;81.40;;;;;;5056224;28;20021;-70
2021/11/11 01:26:24;;;;;;;39.70;21.35;;;3.40;81.30;;;;;;5055805;28;20029;-70
2021/11/11 01:28:50;;;;;;;49.03;21.35;;;3.40;81.10;;;;;;5056392;28;20438;-70
2021/11/11 01:31:16;;;;;;;37.65;20.35;;;3.40;81.30;;;;;;5058045;28;20044;-68
2021/11/11 01:33:41;;;;;;;86.20;22.63;;;3.30;81.30;;;;;;5055989;28;20550;-70
2021/11/11 01:36:07;;;;;;;57.45;21.05;;;3.40;81.40;;;;;;5056564;28;20503;-70
2021/11/11 01:38:32;;;;;;;44.08;20.27;;;3.40;81.40;;;;;;5054744;28;20037;-70
2021/11/11 01:40:58;;;;;;;42.75;19.50;;;3.40;81.40;;;;;;5058059;28;20044;-69
2021/11/11 01:43:24;;;;;;;84.95;20.05;;;3.40;81.40;;;;;;5057118;28;20021;-70
2021/11/11 01:45:50;;;;;;;53.15;20.23;;;3.40;81.40;;;;;;5058491;28;20063;-70
2021/11/11 01:48:17;;;;;;;70.35;20.50;;;3.40;81.40;;;;;;5058649;28;20040;-70
2021/11/11 01:50:44;;;;;;;57.25;18.50;;;3.40;82.20;;;;;;5058742;28;20116;-69
2021/11/11 01:53:12;;;;;;;45.63;18.85;;;3.40;82.00;;;;;;5057264;28;20483;-70
2021/11/11 01:55:39;;;;;;;68.68;19.35;;;3.40;81.10;;;;;;5057388;28;20059;-69
2021/11/11 01:58:05;;;;;;;43.13;17.25;;;3.40;81.10;;;;;;5056873;28;20036;-69
2021/11/11 02:00:47;;;;;;;51.20;17.42;;;3.40;81.10;;;;;;5058316;28;20451;-70
2021/11/11 02:03:14;;;;;;;50.67;17.60;;;3.30;81.30;;;;;;5058985;28;20044;-69
2021/11/11 02:05:42;;;;;;;26.23;16.73;;;3.30;81.20;;;;;;5055689;28;20120;-69
2021/11/11 02:08:08;;;;;;;52.97;17.80;;;3.30;81.30;;;;;;5057061;28;20048;-69
2021/11/11 02:10:34;;;;;;;67.18;19.33;;;3.30;81.40;;;;;;5053452;28;20032;-69
2021/11/11 02:13:01;;;;;;;43.50;18.20;;;3.30;81.40;;;;;;5056973;28;20071;-69
2021/11/11 02:15:27;;;;;;;93.72;20.27;;;3.30;81.50;;;;;;5053061;28;20048;-69
2021/11/11 02:17:53;;;;;;;31.88;17.88;;;3.30;81.60;;;;;;5059196;28;20036;-69
2021/11/11 02:20:31;;;;;;;85.13;18.02;;;3.30;81.70;;;;;;5057618;28;20702;-69
2021/11/11 02:22:59;;;;;;;113.47;19.85;;;3.30;81.90;;;;;;5051737;28;20029;-69
2021/11/11 02:25:26;;;;;;;61.10;18.50;;;3.30;81.70;;;;;;5052725;28;20496;-69
2021/11/11 02:28:00;;;;;;;116.30;19.10;;;3.30;81.60;;;;;;5054545;28;20029;-70
2021/11/11 02:30:27;;;;;;;76.45;18.58;;;3.30;81.60;;;;;;5056833;28;20183;-69
2021/11/11 02:32:53;;;;;;;36.70;18.33;;;3.30;81.60;;;;;;5057609;28;20035;-70
2021/11/11 02:35:21;;;;;;;128.20;20.55;;;3.30;81.60;;;;;;5054786;28;20041;-69
2021/11/11 02:37:47;;;;;;;30.60;16.83;;;3.30;81.80;;;;;;5055324;28;20029;-69
2021/11/11 02:40:19;;;;;;;41.72;17.85;;;3.30;81.80;;;;;;5055181;28;20070;-68
2021/11/11 02:42:46;;;;;;;63.38;17.70;;;3.30;82.00;;;;;;5056570;28;20622;-69
2021/11/11 02:45:16;;;;;;;77.97;16.60;;;3.30;82.00;;;;;;5055656;28;20416;-69
2021/11/11 02:47:43;;;;;;;49.90;15.80;;;3.30;82.00;;;;;;5057756;28;20123;-68
2021/11/11 02:50:10;;;;;;;56.22;16.33;;;3.30;81.90;;;;;;5056384;28;20036;-69
2021/11/11 02:52:36;;;;;;;51.05;16.48;;;3.30;81.80;;;;;;5056784;28;20173;-68
2021/11/11 02:55:03;;;;;;;61.75;16.92;;;3.30;81.70;;;;;;5055760;28;20147;-68
2021/11/11 02:57:34;;;;;;;38.17;15.90;;;3.30;81.80;;;;;;5053717;28;20052;-69
2021/11/11 03:00:06;;;;;;;42.75;15.57;;;3.30;81.80;;;;;;5055752;28;20575;-69
2021/11/11 03:02:34;;;;;;;83.45;16.52;;;3.30;81.80;;;;;;5055284;28;20032;-69
2021/11/11 03:05:02;;;;;;;40.40;15.50;;;3.30;81.80;;;;;;5056857;28;20695;-69
2021/11/11 03:07:28;;;;;;;40.72;14.70;;;3.30;81.70;;;;;;5050524;28;20094;-69
2021/11/11 03:09:54;;;;;;;36.15;14.52;;;3.30;81.70;;;;;;5051502;28;20040;-69
2021/11/11 03:12:21;;;;;;;47.92;15.02;;;3.30;81.70;;;;;;5050808;28;20040;-69
2021/11/11 03:14:50;;;;;;;38.85;15.30;;;3.30;81.60;;;;;;5055582;28;20043;-69
2021/11/11 03:17:16;;;;;;;67.15;16.80;;;3.30;81.70;;;;;;5058575;28;20120;-69
2021/11/11 03:19:42;;;;;;;43.28;15.38;;;3.30;81.70;;;;;;5056413;28;20033;-69
2021/11/11 03:22:09;;;;;;;43.65;15.57;;;3.30;81.80;;;;;;5054550;28;20083;-69
2021/11/11 03:24:37;;;;;;;24.30;13.57;;;3.30;81.80;;;;;;5053551;28;20037;-68
2021/11/11 03:27:05;;;;;;;32.33;15.88;;;3.30;81.90;;;;;;5053654;28;20083;-69
2021/11/11 03:29:30;;;;;;;33.92;15.60;;;3.30;81.90;;;;;;5051897;28;20047;-69
2021/11/11 03:31:56;;;;;;;43.38;15.82;;;3.30;82.00;;;;;;5054305;28;20755;-69
2021/11/11 03:34:23;;;;;;;36.60;16.55;;;3.40;82.10;;;;;;5055980;28;20035;-68
2021/11/11 03:36:53;;;;;;;58.47;17.17;;;3.40;82.00;;;;;;5054369;28;20396;-69
2021/11/11 03:39:20;;;;;;;25.70;16.38;;;3.40;82.00;;;;;;5054494;28;20139;-69
2021/11/11 03:41:47;;;;;;;32.85;16.63;;;3.40;82.00;;;;;;5051463;28;20033;-69
2021/11/11 03:44:15;;;;;;;48.10;17.23;;;3.40;82.00;;;;;;5051171;28;20579;-69
2021/11/11 03:46:42;;;;;;;46.38;17.00;;;3.40;82.10;;;;;;5051522;28;20036;-68
2021/11/11 03:49:08;;;;;;;58.03;16.67;;;3.40;82.20;;;;;;5052953;28;20056;-69
2021/11/11 03:51:33;;;;;;;71.32;17.65;;;3.50;82.30;;;;;;5051915;28;20041;-68
2021/11/11 03:53:59;;;;;;;56.75;17.02;;;3.50;82.10;;;;;;5054602;28;20036;-69
2021/11/11 03:56:25;;;;;;;58.17;17.08;;;3.50;82.00;;;;;;5051818;28;20032;-69
2021/11/11 03:58:50;;;;;;;50.78;17.52;;;3.50;81.90;;;;;;5055497;28;20040;-69
2021/11/11 04:01:16;;;;;;;34.15;17.00;;;3.50;82.00;;;;;;5057759;28;20032;-68
2021/11/11 04:03:42;;;;;;;63.78;17.80;;;3.50;82.10;;;;;;5053168;28;20803;-68
2021/11/11 04:06:08;;;;;;;49.40;17.50;;;3.50;82.30;;;;;;5054202;28;20071;-68
2021/11/11 04:08:34;;;;;;;51.22;17.75;;;3.50;82.20;;;;;;5054289;28;20029;-68
2021/11/11 04:11:00;;;;;;;33.47;16.33;;;3.50;82.20;;;;;;5053419;28;20037;-65
2021/11/11 04:13:28;;;;;;;33.50;16.27;;;3.50;82.10;;;;;;5053684;28;20115;-68
2021/11/11 04:15:55;;;;;;;60.50;17.58;;;3.50;82.10;;;;;;5055574;28;20037;-69
2021/11/11 04:18:20;;;;;;;39.20;17.67;;;3.50;82.00;;;;;;5055828;28;20032;-69
2021/11/11 04:20:46;;;;;;;27.35;17.67;;;3.50;81.80;;;;;;5053951;28;20098;-68
2021/11/11 04:23:12;;;;;;;30.25;18.10;;;3.40;81.80;;;;;;5051843;28;20029;-69
2021/11/11 04:28:23;;;;;;;27.48;16.90;;;3.40;82.20;;;;;;5050989;28;20036;-69
2021/11/11 04:30:53;;;;;;;28.35;17.27;;;3.40;82.20;;;;;;5053230;28;20060;-69
2021/11/11 04:33:19;;;;;;;29.05;17.92;;;3.40;82.00;;;;;;5050798;28;20048;-69
2021/11/11 04:35:49;;;;;;;25.50;16.33;;;3.50;81.80;;;;;;5053129;28;20118;-68
2021/11/11 04:41:40;;;;;;;31.17;18.30;;;3.40;82.60;;;;;;5050673;28;20384;-68
2021/11/11 04:43:49;;;;;;;31.80;17.70;;;3.40;81.80;;;;;;5053627;28;20029;-68
2021/11/11 04:52:04;;;;;;;31.17;18.35;;;3.40;81.50;;;;;;5044168;28;20037;-68
2021/11/11 05:05:22;;;;;;;44.17;21.40;;;3.40;81.40;;;;;;5054412;28;20045;-69
2021/11/11 05:07:49;;;;;;;38.60;20.55;;;3.40;81.40;;;;;;5054589;28;20430;-68
2021/11/11 05:10:16;;;;;;;62.58;19.98;;;3.30;81.40;;;;;;5052258;28;20028;-69
2021/11/11 05:12:42;;;;;;;32.78;18.60;;;3.40;81.50;;;;;;5051277;28;20032;-69
2021/11/11 05:15:08;;;;;;;36.97;19.15;;;3.30;81.60;;;;;;5054204;28;20182;-68
2021/11/11 05:17:34;;;;;;;32.70;19.45;;;3.30;81.70;;;;;;5052062;28;20389;-68
2021/11/11 05:20:00;;;;;;;27.38;18.35;;;3.30;81.90;;;;;;5054294;28;20036;-69
2021/11/11 05:22:26;;;;;;;24.67;16.85;;;3.30;82.00;;;;;;5055546;28;20502;-69
2021/11/11 05:24:52;;;;;;;27.05;17.20;;;3.30;82.00;;;;;;5051788;28;20028;-68
2021/11/11 05:27:22;;;;;;;76.78;20.02;;;3.30;82.10;;;;;;5053571;28;20529;-69
2021/11/11 05:29:49;;;;;;;35.63;17.48;;;3.30;81.80;;;;;;5051041;28;20036;-69
2021/11/11 05:32:14;;;;;;;42.58;17.70;;;3.40;81.80;;;;;;5051473;28;20130;-69
2021/11/11 05:34:40;;;;;;;42.88;18.25;;;3.30;81.80;;;;;;5052566;28;21066;-68
2021/11/11 05:37:06;;;;;;;31.30;17.80;;;3.30;81.80;;;;;;5053803;28;20059;-69
2021/11/11 05:39:32;;;;;;;33.78;20.00;;;3.40;81.90;;;;;;5054358;28;20029;-69
2021/11/11 05:41:59;;;;;;;43.72;20.80;;;3.40;82.00;;;;;;5056365;28;20460;-69
2021/11/11 05:44:25;;;;;;;71.60;21.02;;;3.40;82.00;;;;;;5053520;28;20107;-69
2021/11/11 05:46:52;;;;;;;64.63;21.40;;;3.40;82.00;;;;;;5051086;28;20044;-68
2021/11/11 05:49:18;;;;;;;44.95;20.83;;;3.40;82.00;;;;;;5054604;28;20033;-67
2021/11/11 05:51:44;;;;;;;66.95;18.90;;;3.40;82.00;;;;;;5059423;28;20506;-68
2021/11/11 05:54:10;;;;;;;60.75;19.17;;;3.50;82.00;;;;;;5056516;28;21159;-69
2021/11/11 05:56:36;;;;;;;34.95;18.55;;;3.50;82.10;;;;;;5054723;28;20093;-69
2021/11/11 05:59:03;;;;;;;44.78;18.30;;;3.50;82.10;;;;;;5058457;28;20028;-69
2021/11/11 06:01:28;;;;;;;25.33;16.45;;;3.50;82.10;;;;;;5055562;28;20037;-69
2021/11/11 06:03:54;;;;;;;43.08;16.98;;;3.50;82.30;;;;;;5060873;28;20453;-69
2021/11/11 06:06:19;;;;;;;26.45;15.88;;;3.60;82.40;;;;;;5059205;28;20539;-67
2021/11/11 06:08:45;;;;;;;51.58;17.50;;;3.60;82.30;;;;;;5058396;28;20069;-69
2021/11/11 06:11:11;;;;;;;32.83;16.88;;;3.60;82.30;;;;;;5057156;28;20403;-69
2021/11/11 06:13:36;;;;;;;43.22;18.65;;;3.60;82.30;;;;;;5055943;28;20037;-69
2021/11/11 06:16:02;;;;;;;39.90;18.52;;;3.60;82.30;;;;;;5057359;28;20491;-69
2021/11/11 06:18:30;;;;;;;33.55;16.77;;;3.70;82.30;;;;;;5057184;28;20041;-69
2021/11/11 06:21:01;;;;;;;35.38;17.60;;;3.70;82.30;;;;;;5060924;28;20458;-69
2021/11/11 06:23:28;;;;;;;35.42;18.00;;;3.70;82.30;;;;;;5056712;28;20116;-68
2021/11/11 06:25:55;;;;;;;38.58;18.08;;;3.70;82.10;;;;;;5059117;28;20029;-69
2021/11/11 06:28:20;;;;;;;39.00;17.83;;;3.70;82.10;;;;;;5060599;28;20419;-69
2021/11/11 06:30:47;;;;;;;32.65;17.65;;;3.70;82.10;;;;;;5055027;28;20596;-68
2021/11/11 06:33:12;;;;;;;57.72;17.60;;;3.70;82.10;;;;;;5055039;28;20043;-69
2021/11/11 06:35:39;;;;;;;57.35;17.65;;;3.70;82.10;;;;;;5056768;28;20116;-69
2021/11/11 06:38:05;;;;;;;68.80;18.55;;;3.70;82.00;;;;;;5056848;28;20526;-68
2021/11/11 06:40:32;;;;;;;33.15;15.98;;;3.70;82.00;;;;;;5056263;28;20051;-68
2021/11/11 06:42:58;;;;;;;37.42;17.50;;;3.70;82.30;;;;;;5057792;28;20035;-69
2021/11/11 06:45:26;;;;;;;46.45;18.30;;;3.70;82.00;;;;;;5057186;28;20036;-67
2021/11/11 06:47:52;;;;;;;44.63;19.58;;;3.70;82.10;;;;;;5059830;28;20031;-69
2021/11/11 06:50:18;;;;;;;44.78;22.42;;;3.70;82.00;;;;;;5059805;28;20116;-69
2021/11/11 06:52:44;;;;;;;54.03;21.08;;;3.70;82.00;;;;;;5057394;28;20448;-68
2021/11/11 06:55:10;;;;;;;44.63;19.75;;;3.70;82.00;;;;;;5056322;28;20455;-69
2021/11/11 06:57:36;;;;;;;37.78;18.98;;;3.70;82.00;;;;;;5057454;28;20151;-68
2021/11/11 07:00:06;;;;;;;55.08;19.73;;;3.70;82.00;;;;;;5057039;28;20108;-69
2021/11/11 07:02:31;;;;;;;31.05;18.48;;;3.80;82.00;;;;;;5055787;28;20025;-69
2021/11/11 07:04:57;;;;;;;45.00;19.05;;;3.70;82.00;;;;;;5055505;28;20405;-68
2021/11/11 07:07:22;;;;;;;61.75;20.90;;;3.70;82.00;;;;;;5055360;28;20416;-68
2021/11/11 07:09:48;;;;;;;35.85;19.08;;;3.70;82.00;;;;;;5055810;28;20036;-69
2021/11/11 07:12:13;;;;;;;45.20;20.77;;;3.70;82.10;;;;;;5055779;28;20055;-68
2021/11/11 07:14:42;;;;;;;64.35;22.50;;;3.80;82.30;;;;;;5057791;28;20037;-69
2021/11/11 07:17:07;;;;;;;52.05;21.65;;;3.80;82.40;;;;;;5055742;28;20045;-69
2021/11/11 07:19:34;;;;;;;43.13;21.08;;;3.80;82.30;;;;;;5055562;28;20037;-69
2021/11/11 07:22:00;;;;;;;54.90;25.48;;;3.80;82.30;;;;;;5058139;28;20086;-69
2021/11/11 07:24:26;;;;;;;56.65;25.60;;;3.80;82.30;;;;;;5052981;28;20123;-69
2021/11/11 07:26:52;;;;;;;53.30;23.35;;;3.80;82.40;;;;;;5057532;28;20111;-69
2021/11/11 07:29:17;;;;;;;39.97;19.00;;;3.80;82.40;;;;;;5056186;28;20123;-69
2021/11/11 07:31:45;;;;;;;38.38;19.30;;;3.90;82.50;;;;;;5052188;28;20043;-68
2021/11/11 07:34:10;;;;;;;43.42;18.10;;;3.90;82.50;;;;;;5052118;28;20052;-68
2021/11/11 07:36:37;;;;;;;34.50;17.23;;;3.90;82.50;;;;;;5055380;28;20029;-69
2021/11/11 07:39:04;;;;;;;35.67;17.30;;;3.90;82.60;;;;;;5054644;28;20031;-69
2021/11/11 07:41:30;;;;;;;46.00;17.15;;;3.90;82.50;;;;;;5055339;28;20028;-68
2021/11/11 07:43:55;;;;;;;41.88;17.80;;;4.00;82.50;;;;;;5058003;28;20551;-68
2021/11/11 07:46:21;;;;;;;40.67;18.15;;;3.90;82.30;;;;;;5056917;28;20035;-68
2021/11/11 07:48:47;;;;;;;41.38;18.23;;;4.00;82.50;;;;;;5057272;28;20094;-69
2021/11/11 07:51:12;;;;;;;43.75;17.40;;;4.00;82.50;;;;;;5058414;28;20033;-69
2021/11/11 07:53:38;;;;;;;62.92;20.17;;;4.00;82.70;;;;;;5057339;28;20044;-69
2021/11/11 07:56:05;;;;;;;37.00;17.80;;;4.00;82.70;;;;;;5056887;28;20859;-68
2021/11/11 07:58:31;;;;;;;39.25;16.42;;;4.00;82.80;;;;;;5056583;28;20070;-68
2021/11/11 08:00:57;;;;;;;46.80;17.25;;;4.00;83.00;;;;;;5057336;28;20036;-68
2021/11/11 08:03:22;;;;;;;38.63;18.33;;;4.00;83.00;;;;;;5054669;28;20094;-67
2021/11/11 08:05:48;;;;;;;56.42;18.52;;;4.00;83.00;;;;;;5056877;28;20095;-69
2021/11/11 08:08:14;;;;;;;49.70;18.38;;;4.00;83.20;;;;;;5052514;28;20032;-68
2021/11/11 08:10:40;;;;;;;39.92;18.08;;;4.00;83.40;;;;;;5051150;28;20471;-69
2021/11/11 08:13:06;;;;;;;90.32;19.95;;;4.10;83.70;;;;;;5056330;28;20041;-69
2021/11/11 08:15:32;;;;;;;67.35;19.02;;;4.10;83.90;;;;;;5051947;28;20101;-69
2021/11/11 08:17:58;;;;;;;69.85;19.45;;;4.10;83.90;;;;;;5054763;28;20037;-69
2021/11/11 08:20:24;;;;;;;70.15;19.30;;;4.10;84.10;;;;;;5055189;28;20048;-69
2021/11/11 08:22:50;;;;;;;42.05;17.52;;;4.10;84.20;;;;;;5054574;28;20103;-69
2021/11/11 08:25:18;;;;;;;57.33;17.40;;;4.20;84.40;;;;;;5054713;28;20052;-68
2021/11/11 08:27:44;;;;;;;50.00;17.20;;;4.20;84.50;;;;;;5052843;28;20530;-68
2021/11/11 08:30:14;;;;;;;43.30;16.48;;;4.20;84.40;;;;;;5054695;28;20029;-68
2021/11/11 08:32:42;;;;;;;41.80;18.15;;;4.30;84.70;;;;;;5054187;28;20025;-69
2021/11/11 08:35:09;;;;;;;38.58;16.17;;;4.30;84.90;;;;;;5053287;28;20115;-69
2021/11/11 08:37:34;;;;;;;50.45;18.52;;;4.40;85.00;;;;;;5052559;28;20067;-69
2021/11/11 08:40:00;;;;;;;65.80;18.90;;;4.30;85.10;;;;;;5052537;28;20048;-68
2021/11/11 08:42:26;;;;;;;60.58;18.85;;;4.40;85.30;;;;;;5057085;28;20043;-68
2021/11/11 08:44:53;;;;;;;52.45;18.58;;;4.40;85.30;;;;;;5058047;28;20091;-68
2021/11/11 08:47:19;;;;;;;56.50;19.45;;;4.50;85.40;;;;;;5055196;28;20123;-68
2021/11/11 08:49:47;;;;;;;40.63;18.80;;;4.60;85.50;;;;;;5054672;28;20078;-68
2021/11/11 08:52:14;;;;;;;55.08;18.52;;;4.60;85.60;;;;;;5057752;28;20132;-68
2021/11/11 08:54:41;;;;;;;61.03;19.25;;;4.70;85.60;;;;;;5051664;28;20171;-68
2021/11/11 08:57:07;;;;;;;42.33;19.83;;;4.70;85.60;;;;;;5054360;28;20545;-68
2021/11/11 08:59:34;;;;;;;55.83;20.40;;;4.80;86.50;;;;;;5053884;28;20519;-66
2021/11/11 09:02:00;;;;;;;42.05;19.23;;;4.80;85.70;;;;;;5053942;28;20061;-68
2021/11/11 09:04:26;;;;;;;40.22;19.05;;;4.90;85.80;;;;;;5052399;28;20554;-68
2021/11/11 09:06:52;;;;;;;37.72;20.25;;;4.90;85.70;;;;;;5055622;28;20038;-69
2021/11/11 09:09:20;;;;;;;44.22;21.65;;;5.00;85.80;;;;;;5054892;28;20051;-68
2021/11/11 09:11:46;;;;;;;55.97;23.58;;;5.00;85.90;;;;;;5053647;28;20479;-68
2021/11/11 09:14:13;;;;;;;44.33;22.30;;;5.10;86.10;;;;;;5052498;28;20035;-68
2021/11/11 09:16:38;;;;;;;37.13;21.65;;;5.10;86.00;;;;;;5057711;28;20491;-68
2021/11/11 09:19:04;;;;;;;44.53;24.00;;;5.20;86.00;;;;;;5056139;28;20033;-67
2021/11/11 09:21:30;;;;;;;36.38;22.00;;;5.30;86.00;;;;;;5054958;28;20379;-68
2021/11/11 09:23:56;;;;;;;37.47;23.25;;;5.30;86.10;;;;;;5055524;28;20029;-68
2021/11/11 09:26:22;;;;;;;44.83;22.92;;;5.40;86.10;;;;;;5055638;28;20512;-68
2021/11/11 09:28:48;;;;;;;35.42;22.25;;;5.50;87.00;;;;;;5059130;28;20056;-68
2021/11/11 09:31:15;;;;;;;37.85;21.80;;;5.50;86.00;;;;;;5055918;28;20033;-68
2021/11/11 09:33:43;;;;;;;35.33;21.35;;;5.60;85.80;;;;;;5056331;28;20101;-67
2021/11/11 09:36:10;;;;;;;33.63;22.08;;;5.60;85.80;;;;;;5057256;28;20565;-69
2021/11/11 09:38:36;;;;;;;32.45;20.77;;;5.70;85.70;;;;;;5059770;28;20032;-68
2021/11/11 09:41:02;;;;;;;28.67;18.98;;;5.70;85.60;;;;;;5061817;28;20020;-68
2021/11/11 09:43:28;;;;;;;28.30;18.83;;;5.80;85.60;;;;;;5060820;28;20032;-68
2021/11/11 09:45:54;;;;;;;30.42;18.95;;;5.80;85.60;;;;;;5059871;28;20526;-68
2021/11/11 09:48:20;;;;;;;26.17;17.63;;;5.80;85.60;;;;;;5057283;28;20560;-68
2021/11/11 09:50:46;;;;;;;25.02;17.55;;;5.80;85.60;;;;;;5059374;28;20032;-69
2021/11/11 09:53:16;;;;;;;29.85;18.20;;;5.90;85.60;;;;;;5057334;28;20123;-68
2021/11/11 09:58:41;;;;;;;25.27;17.90;;;5.90;85.60;;;;;;5058549;28;20094;-68
2021/11/11 10:01:19;;;;;;;26.10;17.58;;;6.00;85.80;;;;;;5056905;28;20037;-68
2021/11/11 10:03:48;;;;;;;28.98;17.85;;;6.00;86.00;;;;;;5057815;28;20025;-68
2021/11/11 10:06:16;;;;;;;28.15;18.85;;;6.00;85.60;;;;;;5057794;28;20149;-68
2021/11/11 10:08:48;;;;;;;27.58;18.48;;;6.10;85.60;;;;;;5057134;28;20063;-68
2021/11/11 10:11:32;;;;;;;27.30;17.75;;;6.10;85.70;;;;;;5057076;28;20524;-68
2021/11/11 10:14:06;;;;;;;24.13;17.35;;;6.10;85.70;;;;;;5054188;28;20044;-68
2021/11/11 10:16:40;;;;;;;26.55;17.05;;;6.20;85.50;;;;;;5060389;28;20033;-68
2021/11/11 10:19:06;;;;;;;24.90;17.05;;;6.20;86.30;;;;;;5057003;28;20514;-68
2021/11/11 10:21:36;;;;;;;27.48;17.90;;;6.20;85.30;;;;;;5059845;28;20036;-68
2021/11/11 10:24:34;;;;;;;26.02;18.05;;;6.20;85.30;;;;;;5056543;28;20096;-68
2021/11/11 10:27:00;;;;;;;27.23;18.02;;;6.30;86.30;;;;;;5058590;28;20037;-68
2021/11/11 10:29:37;;;;;;;26.38;17.85;;;6.30;85.80;;;;;;5056304;28;20515;-69
2021/11/11 10:32:28;;;;;;;26.70;17.85;;;6.30;86.10;;;;;;5056889;28;20039;-68
2021/11/11 10:35:13;;;;;;;28.88;17.90;;;6.40;86.30;;;;;;5054218;28;20032;-68
2021/11/11 10:37:42;;;;;;;31.33;17.85;;;6.50;86.40;;;;;;5058513;28;20033;-69
2021/11/11 10:40:19;;;;;;;30.88;19.85;;;6.50;85.90;;;;;;5059723;28;20036;-68
2021/11/11 10:42:47;;;;;;;27.58;18.85;;;6.60;86.30;;;;;;5059037;28;20051;-68
2021/11/11 10:45:16;;;;;;;27.73;19.45;;;6.70;86.20;;;;;;5060346;28;20040;-68
2021/11/11 10:47:49;;;;;;;26.15;17.85;;;6.80;86.20;;;;;;5057423;28;20033;-68
2021/11/11 10:50:27;;;;;;;29.65;19.35;;;6.80;86.20;;;;;;5056712;28;20518;-68
2021/11/11 10:52:55;;;;;;;27.42;18.15;;;6.90;86.00;;;;;;5058037;28;20044;-68
2021/11/11 10:55:21;;;;;;;30.65;19.52;;;7.00;86.10;;;;;;5059816;28;20434;-69
2021/11/11 10:57:50;;;;;;;30.40;19.92;;;7.10;86.20;;;;;;5056650;28;20591;-68
2021/11/11 11:00:21;;;;;;;26.70;19.58;;;7.20;86.40;;;;;;5054953;28;20036;-68
2021/11/11 11:02:51;;;;;;;32.22;19.83;;;7.30;86.30;;;;;;5057423;28;20048;-68
2021/11/11 11:05:18;;;;;;;26.95;19.80;;;7.50;86.40;;;;;;5059001;28;20044;-68
2021/11/11 11:07:52;;;;;;;30.30;20.25;;;7.60;86.00;;;;;;5058092;28;20052;-68
2021/11/11 11:10:18;;;;;;;26.52;19.10;;;7.70;86.00;;;;;;5057458;28;20075;-68
2021/11/11 11:12:45;;;;;;;26.27;19.58;;;7.80;85.90;;;;;;5054009;28;20178;-68
2021/11/11 11:15:38;;;;;;;26.85;19.10;;;7.90;86.60;;;;;;5058333;28;20060;-68
2021/11/11 11:18:04;;;;;;;23.92;18.10;;;8.00;85.70;;;;;;5058150;28;20039;-68
2021/11/11 11:20:30;;;;;;;24.77;18.98;;;8.10;85.30;;;;;;5056020;28;20389;-69
2021/11/11 11:23:12;;;;;;;28.10;18.95;;;8.20;85.20;;;;;;5055136;28;20044;-66
2021/11/11 11:25:39;;;;;;;24.95;18.88;;;8.40;85.10;;;;;;5055648;28;20027;-65
2021/11/11 11:28:29;;;;;;;27.73;17.90;;;8.50;85.00;;;;;;5055709;28;20017;-66
2021/11/11 11:30:57;;;;;;;27.98;18.50;;;8.50;84.80;;;;;;5056271;28;20123;-66
2021/11/11 11:33:41;;;;;;;26.17;18.30;;;8.60;84.70;;;;;;5059158;28;20432;-65
2021/11/11 11:36:06;;;;;;;23.25;17.15;;;8.80;84.70;;;;;;5058620;28;20127;-66
2021/11/11 11:38:38;;;;;;;24.27;16.27;;;8.90;84.50;;;;;;5056171;28;20514;-67
2021/11/11 11:41:30;;;;;;;22.10;16.52;;;8.90;84.30;;;;;;5055459;28;20098;-66
2021/11/11 11:44:29;;;;;;;25.65;18.48;;;9.00;84.00;;;;;;5060811;28;20022;-66
2021/11/11 11:46:57;;;;;;;24.20;17.75;;;9.20;83.70;;;;;;5056976;28;20551;-66
2021/11/11 11:49:24;;;;;;;25.02;17.65;;;9.30;83.60;;;;;;5057760;28;20084;-68
2021/11/11 11:51:50;;;;;;;26.08;18.17;;;9.30;83.40;;;;;;5058984;28;20040;-66
2021/11/11 11:54:34;;;;;;;24.13;17.83;;;9.40;83.20;;;;;;5059414;28;20025;-66
2021/11/11 11:57:04;;;;;;;21.95;16.55;;;9.50;83.20;;;;;;5057699;28;20457;-65
2021/11/11 11:59:36;;;;;;;20.95;14.80;;;9.60;83.80;;;;;;5057514;28;20044;-64
2021/11/11 12:07:13;;;;;;;21.20;14.45;;;9.90;82.10;;;;;;5058694;28;20029;-66
2021/11/11 12:09:48;;;;;;;17.85;13.80;;;10.00;81.70;;;;;;5057185;28;20099;-66
2021/11/11 12:15:16;;;;;;;19.92;14.23;;;10.10;80.90;;;;;;5057828;28;20040;-63
2021/11/11 12:38:47;;;;;;;17.75;12.05;;;10.70;79.30;;;;;;5058797;28;20068;-67
2021/11/11 12:41:16;;;;;;;16.90;13.07;;;10.80;78.70;;;;;;5057312;28;20397;-67
2021/11/11 12:43:43;;;;;;;17.83;12.80;;;10.90;79.10;;;;;;5058174;28;20033;-67
2021/11/11 12:46:36;;;;;;;16.58;12.25;;;11.00;78.80;;;;;;5056861;28;20115;-65
2021/11/11 12:49:24;;;;;;;18.38;13.20;;;11.00;77.50;;;;;;5057552;28;20044;-67
2021/11/11 12:52:23;;;;;;;17.90;13.73;;;11.10;78.10;;;;;;5056477;28;20032;-67
2021/11/11 12:54:50;;;;;;;20.08;13.45;;;11.20;78.10;;;;;;5054969;28;20029;-67
2021/11/11 12:57:16;;;;;;;18.75;13.52;;;11.20;78.70;;;;;;5055250;28;20594;-66
2021/11/11 12:59:42;;;;;;;19.08;14.98;;;11.20;78.70;;;;;;5057565;28;20033;-67
2021/11/11 13:02:11;;;;;;;19.92;14.77;;;11.30;78.70;;;;;;5053580;28;20035;-67
2021/11/11 13:04:47;;;;;;;17.75;14.55;;;11.40;78.70;;;;;;5054912;28;20457;-67
2021/11/11 13:07:31;;;;;;;18.73;13.85;;;11.40;78.30;;;;;;5055743;28;20033;-67
2021/11/11 13:10:19;;;;;;;18.00;14.20;;;11.40;78.00;;;;;;5053749;28;20033;-67
2021/11/11 13:13:09;;;;;;;17.70;13.18;;;11.50;77.90;;;;;;5050524;28;20071;-67
2021/11/11 13:15:42;;;;;;;21.02;14.23;;;11.50;77.70;;;;;;5057324;28;20025;-67
2021/11/11 13:18:09;;;;;;;15.77;13.27;;;11.50;78.00;;;;;;5054846;28;20399;-67
2021/11/11 13:20:50;;;;;;;16.65;13.75;;;11.60;78.20;;;;;;5056793;28;20033;-67
2021/11/11 13:23:27;;;;;;;17.95;12.88;;;11.60;77.90;;;;;;5053548;28;20049;-66
2021/11/11 13:43:38;;;;;;;17.50;12.43;;;11.70;77.40;;;;;;5053298;28;20449;-67
2021/11/11 15:14:06;;;;;;;18.45;11.25;;;12.10;74.40;;;;;;5052453;28;20028;-68
2021/11/11 15:19:39;;;;;;;20.08;13.73;;;12.00;74.90;;;;;;5057408;28;20032;-67
2021/11/11 16:27:29;;;;;;;26.17;16.05;;;9.90;77.30;;;;;;5059473;28;20037;-68
2021/11/11 16:29:59;;;;;;;24.08;16.40;;;9.80;76.40;;;;;;5058134;28;20416;-67